createdAt,value
2022-08-26T00:00:50.976Z,20.26
2022-08-26T00:01:53.973Z,20.23
2022-08-26T00:02:56.692Z,20.25
2022-08-26T00:04:01.505Z,20.26
2022-08-26T00:05:04.096Z,20.28
2022-08-26T00:06:07.373Z,20.28
2022-08-26T00:07:10.570Z,20.25
2022-08-26T00:08:13.218Z,20.26
2022-08-26T00:09:16.103Z,20.27
2022-08-26T00:10:18.815Z,20.28
2022-08-26T00:11:26.673Z,20.30
2022-08-26T00:12:37.471Z,20.28
2022-08-26T00:13:40.265Z,20.30
2022-08-26T00:14:49.956Z,20.27
2022-08-26T00:15:51.808Z,20.26
2022-08-26T00:16:53.671Z,20.26
2022-08-26T00:17:57.140Z,20.29
2022-08-26T00:18:59.293Z,20.29
2022-08-26T00:20:01.245Z,20.28
2022-08-26T00:21:06.236Z,20.28
2022-08-26T00:22:08.547Z,20.27
2022-08-26T00:23:10.360Z,20.25
2022-08-26T00:24:13.489Z,20.25
2022-08-26T00:25:15.888Z,20.23
2022-08-26T00:26:19.169Z,20.23
2022-08-26T00:27:22.659Z,20.27
2022-08-26T00:28:24.499Z,20.29
2022-08-26T00:29:26.336Z,20.29
2022-08-26T00:30:29.362Z,20.28
2022-08-26T00:31:32.707Z,20.27
2022-08-26T00:32:34.965Z,20.29
2022-08-26T00:33:39.963Z,20.29
2022-08-26T00:34:41.948Z,20.28
2022-08-26T00:35:43.905Z,20.26
2022-08-26T00:36:51.745Z,20.25
2022-08-26T00:37:54.043Z,20.28
2022-08-26T00:38:56.582Z,20.28
2022-08-26T00:40:00.787Z,20.27
2022-08-26T00:41:06.909Z,20.26
2022-08-26T00:42:08.740Z,20.26
2022-08-26T00:43:10.630Z,20.22
2022-08-26T00:44:13.051Z,20.19
2022-08-26T00:45:16.040Z,20.21
2022-08-26T00:46:21.964Z,20.18
2022-08-26T00:47:31.018Z,20.15
2022-08-26T00:48:34.408Z,20.16
2022-08-26T00:49:39.021Z,20.14
2022-08-26T00:50:43.076Z,20.13
2022-08-26T00:51:49.867Z,20.12
2022-08-26T00:52:52.615Z,20.10
2022-08-26T00:53:57.593Z,20.13
2022-08-26T00:55:02.821Z,20.09
2022-08-26T00:56:08.380Z,20.09
2022-08-26T00:57:16.512Z,20.06
2022-08-26T00:58:18.545Z,20.07
2022-08-26T00:59:20.943Z,20.07
2022-08-26T01:00:25.186Z,20.01
2022-08-26T01:01:28.618Z,19.95
2022-08-26T01:02:32.583Z,19.95
2022-08-26T01:03:34.965Z,19.97
2022-08-26T01:04:37.958Z,19.99
2022-08-26T01:05:41.330Z,19.99
2022-08-26T01:06:44.425Z,20.02
2022-08-26T01:07:46.503Z,20.04
2022-08-26T01:08:48.541Z,20.04
2022-08-26T01:09:50.458Z,20.00
2022-08-26T01:10:54.930Z,20.01
2022-08-26T01:11:59.119Z,20.03
2022-08-26T01:13:03.482Z,20.03
2022-08-26T01:14:06.788Z,19.97
2022-08-26T01:15:10.736Z,19.96
2022-08-26T01:16:14.653Z,19.97
2022-08-26T01:17:16.973Z,19.98
2022-08-26T01:18:18.896Z,20.02
2022-08-26T01:19:23.916Z,20.01
2022-08-26T01:20:38.790Z,19.98
2022-08-26T01:21:44.188Z,19.99
2022-08-26T01:23:01.653Z,20.01
2022-08-26T01:24:05.711Z,20.01
2022-08-26T01:25:07.678Z,20.02
2022-08-26T01:26:19.412Z,20.03
2022-08-26T01:27:22.239Z,20.02
2022-08-26T01:28:27.441Z,20.02
2022-08-26T01:29:30.367Z,20.03
2022-08-26T01:30:33.428Z,20.02
2022-08-26T01:31:39.067Z,20.00
2022-08-26T01:32:41.976Z,19.99
2022-08-26T01:33:48.505Z,19.99
2022-08-26T01:34:52.039Z,20.01
2022-08-26T01:35:53.843Z,19.98
2022-08-26T01:37:15.924Z,19.99
2022-08-26T01:38:18.847Z,19.99
2022-08-26T01:39:20.855Z,19.98
2022-08-26T01:40:26.736Z,19.98
2022-08-26T01:41:29.313Z,19.97
2022-08-26T01:42:31.721Z,19.99
2022-08-26T01:43:34.624Z,19.99
2022-08-26T01:44:39.853Z,19.96
2022-08-26T01:45:42.556Z,19.96
2022-08-26T01:46:47.251Z,19.93
2022-08-26T01:47:56.814Z,19.91
2022-08-26T01:49:01.632Z,19.90
2022-08-26T01:50:05.441Z,19.89
2022-08-26T01:51:09.919Z,19.88
2022-08-26T01:52:14.548Z,19.89
2022-08-26T01:53:18.898Z,19.90
2022-08-26T01:54:23.992Z,19.86
2022-08-26T01:55:32.402Z,19.86
2022-08-26T01:56:36.742Z,19.85
2022-08-26T01:57:38.586Z,19.84
2022-08-26T01:58:43.779Z,19.84
2022-08-26T01:59:46.967Z,19.84
2022-08-26T02:00:49.279Z,19.82
2022-08-26T02:01:53.244Z,19.75
2022-08-26T02:03:17.088Z,19.76
2022-08-26T02:04:39.764Z,19.76
2022-08-26T02:05:41.995Z,19.76
2022-08-26T02:06:45.589Z,19.75
2022-08-26T02:07:48.486Z,19.75
2022-08-26T02:08:54.607Z,19.75
2022-08-26T02:09:57.086Z,19.70
2022-08-26T02:10:59.081Z,19.68
2022-08-26T02:12:01.808Z,19.67
2022-08-26T02:13:04.385Z,19.64
2022-08-26T02:14:10.247Z,19.63
2022-08-26T02:15:12.825Z,19.62
2022-08-26T02:16:16.648Z,19.61
2022-08-26T02:17:21.164Z,19.63
2022-08-26T02:18:23.493Z,19.64
2022-08-26T02:19:31.463Z,19.62
2022-08-26T02:20:33.716Z,19.63
2022-08-26T02:21:36.129Z,19.61
2022-08-26T02:22:38.941Z,19.60
2022-08-26T02:23:43.072Z,19.60
2022-08-26T02:24:52.937Z,19.61
2022-08-26T02:26:05.049Z,19.62
2022-08-26T02:27:06.835Z,19.62
2022-08-26T02:28:09.905Z,19.63
2022-08-26T02:29:18.298Z,19.64
2022-08-26T02:30:32.379Z,19.64
2022-08-26T02:31:34.153Z,19.63
2022-08-26T02:32:36.835Z,19.63
2022-08-26T02:33:43.111Z,19.61
2022-08-26T02:34:46.179Z,19.59
2022-08-26T02:35:48.455Z,19.58
2022-08-26T02:36:50.873Z,19.58
2022-08-26T02:37:53.518Z,19.60
2022-08-26T02:38:55.335Z,19.61
2022-08-26T02:39:57.620Z,19.62
2022-08-26T02:40:59.619Z,19.64
2022-08-26T02:42:01.661Z,19.61
2022-08-26T02:43:04.071Z,19.59
2022-08-26T02:44:10.561Z,19.59
2022-08-26T02:45:13.116Z,19.56
2022-08-26T02:46:27.711Z,19.47
2022-08-26T02:47:32.583Z,19.45
2022-08-26T02:48:34.608Z,19.44
2022-08-26T02:49:37.940Z,19.40
2022-08-26T02:50:40.457Z,19.42
2022-08-26T02:51:44.484Z,19.41
2022-08-26T02:52:46.661Z,19.36
2022-08-26T02:53:48.553Z,19.37
2022-08-26T02:54:50.463Z,19.39
2022-08-26T02:55:52.655Z,19.38
2022-08-26T02:56:55.088Z,19.35
2022-08-26T02:57:56.889Z,19.39
2022-08-26T02:58:58.721Z,19.42
2022-08-26T03:00:01.866Z,19.45
2022-08-26T03:01:05.402Z,19.49
2022-08-26T03:02:11.246Z,19.48
2022-08-26T03:03:13.393Z,19.48
2022-08-26T03:04:15.484Z,19.45
2022-08-26T03:05:18.192Z,19.45
2022-08-26T03:06:20.346Z,19.37
2022-08-26T03:07:22.124Z,19.32
2022-08-26T03:08:24.273Z,19.33
2022-08-26T03:09:27.196Z,19.33
2022-08-26T03:10:29.590Z,19.34
2022-08-26T03:11:33.130Z,19.35
2022-08-26T03:12:35.641Z,19.37
2022-08-26T03:13:38.042Z,19.38
2022-08-26T03:14:40.448Z,19.40
2022-08-26T03:15:42.322Z,19.37
2022-08-26T03:16:44.770Z,19.35
2022-08-26T03:17:50.563Z,19.37
2022-08-26T03:18:52.628Z,19.37
2022-08-26T03:19:54.764Z,19.38
2022-08-26T03:20:59.888Z,19.37
2022-08-26T03:22:04.265Z,19.37
2022-08-26T03:23:06.946Z,19.39
2022-08-26T03:24:10.253Z,19.40
2022-08-26T03:25:13.632Z,19.40
2022-08-26T03:26:17.810Z,19.41
2022-08-26T03:27:19.889Z,19.41
2022-08-26T03:28:22.577Z,19.41
2022-08-26T03:29:43.513Z,19.38
2022-08-26T03:30:45.758Z,19.37
2022-08-26T03:31:47.747Z,19.37
2022-08-26T03:32:49.747Z,19.38
2022-08-26T03:33:51.898Z,19.38
2022-08-26T03:34:54.060Z,19.33
2022-08-26T03:35:55.931Z,19.34
2022-08-26T03:36:58.888Z,19.33
2022-08-26T03:38:01.167Z,19.35
2022-08-26T03:39:03.784Z,19.33
2022-08-26T03:40:08.337Z,19.32
2022-08-26T03:41:12.041Z,19.27
2022-08-26T03:42:15.102Z,19.22
2022-08-26T03:43:17.779Z,19.23
2022-08-26T03:44:19.995Z,19.21
2022-08-26T03:45:22.185Z,19.20
2022-08-26T03:46:24.459Z,19.20
2022-08-26T03:47:28.627Z,19.23
2022-08-26T03:48:30.459Z,19.26
2022-08-26T03:49:32.336Z,19.25
2022-08-26T03:50:35.934Z,19.23
2022-08-26T03:51:39.034Z,19.22
2022-08-26T03:52:43.876Z,19.21
2022-08-26T03:53:46.409Z,19.23
2022-08-26T03:54:48.343Z,19.22
2022-08-26T03:55:51.757Z,19.24
2022-08-26T03:56:54.244Z,19.26
2022-08-26T03:57:56.065Z,19.23
2022-08-26T03:58:57.866Z,19.22
2022-08-26T04:00:00.753Z,19.21
2022-08-26T04:01:02.570Z,19.22
2022-08-26T04:02:11.358Z,19.22
2022-08-26T04:03:33.550Z,19.17
2022-08-26T04:04:35.707Z,19.15
2022-08-26T04:05:37.991Z,19.16
2022-08-26T04:06:44.800Z,19.14
2022-08-26T04:07:47.343Z,19.15
2022-08-26T04:08:50.752Z,19.16
2022-08-26T04:09:59.041Z,19.19
2022-08-26T04:11:01.520Z,19.22
2022-08-26T04:12:04.186Z,19.24
2022-08-26T04:13:06.764Z,19.23
2022-08-26T04:14:10.856Z,19.22
2022-08-26T04:15:14.382Z,19.22
2022-08-26T04:16:17.535Z,19.23
2022-08-26T04:17:19.736Z,19.19
2022-08-26T04:18:31.461Z,19.15
2022-08-26T04:19:39.072Z,19.15
2022-08-26T04:20:40.999Z,19.14
2022-08-26T04:21:42.934Z,19.10
2022-08-26T04:22:45.512Z,19.08
2022-08-26T04:23:48.095Z,19.07
2022-08-26T04:24:49.973Z,19.10
2022-08-26T04:25:51.950Z,19.12
2022-08-26T04:26:54.100Z,19.16
2022-08-26T04:27:55.945Z,19.15
2022-08-26T04:28:59.247Z,19.16
2022-08-26T04:30:01.294Z,19.14
2022-08-26T04:31:03.297Z,19.13
2022-08-26T04:32:05.306Z,19.12
2022-08-26T04:33:12.905Z,19.07
2022-08-26T04:34:15.253Z,19.08
2022-08-26T04:35:18.077Z,19.09
2022-08-26T04:36:20.331Z,19.07
2022-08-26T04:37:22.645Z,19.05
2022-08-26T04:38:24.631Z,19.09
2022-08-26T04:39:27.748Z,19.09
2022-08-26T04:40:29.822Z,19.11
2022-08-26T04:41:31.800Z,19.10
2022-08-26T04:42:33.610Z,19.10
2022-08-26T04:43:37.578Z,19.11
2022-08-26T04:44:40.086Z,19.10
2022-08-26T04:45:42.128Z,19.10
2022-08-26T04:46:44.196Z,19.13
2022-08-26T04:47:47.033Z,19.11
2022-08-26T04:48:51.301Z,19.11
2022-08-26T04:49:58.044Z,19.10
2022-08-26T04:51:00.262Z,19.10
2022-08-26T04:52:02.240Z,19.13
2022-08-26T04:53:04.970Z,19.12
2022-08-26T04:54:08.897Z,19.13
2022-08-26T04:55:10.866Z,19.10
2022-08-26T04:56:13.307Z,19.08
2022-08-26T04:57:15.355Z,19.07
2022-08-26T04:58:19.278Z,19.06
2022-08-26T04:59:21.203Z,19.03
2022-08-26T05:00:23.662Z,19.00
2022-08-26T05:01:28.676Z,18.97
2022-08-26T05:02:31.834Z,19.01
2022-08-26T05:03:35.521Z,19.05
2022-08-26T05:04:37.925Z,19.06
2022-08-26T05:05:43.821Z,19.08
2022-08-26T05:06:45.697Z,19.06
2022-08-26T05:07:47.537Z,19.08
2022-08-26T05:08:51.782Z,19.08
2022-08-26T05:09:55.155Z,19.04
2022-08-26T05:10:56.996Z,19.03
2022-08-26T05:11:58.773Z,19.03
2022-08-26T05:13:00.868Z,19.03
2022-08-26T05:14:02.673Z,19.04
2022-08-26T05:15:04.698Z,19.05
2022-08-26T05:16:08.848Z,19.05
2022-08-26T05:17:15.096Z,19.05
2022-08-26T05:18:19.994Z,19.03
2022-08-26T05:19:22.306Z,19.01
2022-08-26T05:20:25.791Z,19.02
2022-08-26T05:21:29.316Z,19.06
2022-08-26T05:22:31.346Z,19.09
2022-08-26T05:23:35.387Z,19.12
2022-08-26T05:24:37.430Z,19.08
2022-08-26T05:25:42.190Z,19.07
2022-08-26T05:26:44.876Z,19.10
2022-08-26T05:27:47.242Z,19.10
2022-08-26T05:28:49.518Z,19.11
2022-08-26T05:29:54.434Z,19.15
2022-08-26T05:30:57.162Z,19.16
2022-08-26T05:32:00.962Z,19.18
2022-08-26T05:33:02.967Z,19.18
2022-08-26T05:34:05.198Z,19.18
2022-08-26T05:35:08.762Z,19.17
2022-08-26T05:36:12.638Z,19.19
2022-08-26T05:37:15.843Z,19.22
2022-08-26T05:38:20.109Z,19.22
2022-08-26T05:39:23.806Z,19.19
2022-08-26T05:40:25.651Z,19.21
2022-08-26T05:41:34.355Z,19.22
2022-08-26T05:42:38.589Z,19.22
2022-08-26T05:43:40.394Z,19.25
2022-08-26T05:44:55.627Z,19.27
2022-08-26T05:46:05.927Z,19.30
2022-08-26T05:47:07.916Z,19.32
2022-08-26T05:48:11.368Z,19.33
2022-08-26T05:49:14.381Z,19.35
2022-08-26T05:50:22.054Z,19.36
2022-08-26T05:51:26.087Z,19.39
2022-08-26T05:52:28.217Z,19.41
2022-08-26T05:53:30.026Z,19.42
2022-08-26T05:54:34.129Z,19.41
2022-08-26T05:55:41.543Z,19.40
2022-08-26T05:56:43.450Z,19.38
2022-08-26T05:57:48.168Z,19.39
2022-08-26T05:58:50.018Z,19.39
2022-08-26T05:59:52.228Z,19.42
2022-08-26T06:00:59.087Z,19.44
2022-08-26T06:02:02.408Z,19.44
2022-08-26T06:03:04.419Z,19.41
2022-08-26T06:04:07.116Z,19.45
2022-08-26T06:05:09.067Z,19.48
2022-08-26T06:06:15.113Z,19.49
2022-08-26T06:07:41.914Z,19.50
2022-08-26T06:08:44.451Z,19.53
2022-08-26T06:09:46.342Z,19.53
2022-08-26T06:10:49.550Z,19.55
2022-08-26T06:11:52.738Z,19.58
2022-08-26T06:12:55.530Z,19.59
2022-08-26T06:14:03.139Z,19.59
2022-08-26T06:15:05.821Z,19.59
2022-08-26T06:16:09.245Z,19.61
2022-08-26T06:17:11.123Z,19.64
2022-08-26T06:18:16.269Z,19.64
2022-08-26T06:19:18.312Z,19.62
2022-08-26T06:20:20.115Z,19.61
2022-08-26T06:21:25.618Z,19.61
2022-08-26T06:22:46.052Z,19.64
2022-08-26T06:24:07.302Z,19.62
2022-08-26T06:25:28.207Z,19.66
2022-08-26T06:26:31.325Z,19.69
2022-08-26T06:27:33.144Z,19.74
2022-08-26T06:28:35.244Z,19.76
2022-08-26T06:29:39.176Z,19.78
2022-08-26T06:30:41.253Z,19.76
2022-08-26T06:31:43.183Z,19.72
2022-08-26T06:32:46.010Z,19.72
2022-08-26T06:33:47.936Z,19.76
2022-08-26T06:34:51.397Z,19.81
2022-08-26T06:35:53.897Z,19.83
2022-08-26T06:36:58.874Z,19.80
2022-08-26T06:38:00.690Z,19.77
2022-08-26T06:39:04.789Z,19.77
2022-08-26T06:40:07.174Z,19.81
2022-08-26T06:41:10.794Z,19.82
2022-08-26T06:42:12.833Z,19.83
2022-08-26T06:43:24.190Z,19.81
2022-08-26T06:44:26.107Z,19.82
2022-08-26T06:45:28.155Z,19.83
2022-08-26T06:46:30.715Z,19.88
2022-08-26T06:47:32.917Z,19.91
2022-08-26T06:48:36.042Z,19.96
2022-08-26T06:49:37.878Z,20.00
2022-08-26T06:50:42.247Z,20.04
2022-08-26T06:51:44.103Z,20.07
2022-08-26T06:52:45.932Z,20.10
2022-08-26T06:53:49.982Z,20.14
2022-08-26T06:54:51.793Z,20.19
2022-08-26T06:55:54.923Z,20.21
2022-08-26T06:56:57.984Z,20.23
2022-08-26T06:57:59.989Z,20.28
2022-08-26T06:59:01.985Z,20.32
2022-08-26T07:00:12.797Z,20.35
2022-08-26T07:01:26.152Z,20.38
2022-08-26T07:02:28.607Z,20.42
2022-08-26T07:03:30.977Z,20.48
2022-08-26T07:04:41.595Z,20.50
2022-08-26T07:05:44.395Z,20.54
2022-08-26T07:06:53.226Z,20.58
2022-08-26T07:07:56.805Z,20.56
2022-08-26T07:09:03.500Z,20.59
2022-08-26T07:10:06.111Z,20.63
2022-08-26T07:11:08.934Z,20.69
2022-08-26T07:12:10.859Z,20.74
2022-08-26T07:13:12.823Z,20.76
2022-08-26T07:14:14.718Z,20.82
2022-08-26T07:15:16.573Z,20.84
2022-08-26T07:16:18.755Z,20.86
2022-08-26T07:17:20.673Z,20.91
2022-08-26T07:18:22.488Z,20.95
2022-08-26T07:19:30.862Z,21.01
2022-08-26T07:20:36.243Z,21.07
2022-08-26T07:21:38.422Z,21.14
2022-08-26T07:22:40.450Z,21.21
2022-08-26T07:23:45.452Z,21.26
2022-08-26T07:24:48.780Z,21.31
2022-08-26T07:25:50.650Z,21.34
2022-08-26T07:26:52.558Z,21.36
2022-08-26T07:27:54.632Z,21.41
2022-08-26T07:28:57.022Z,21.47
2022-08-26T07:29:59.253Z,21.52
2022-08-26T07:31:10.868Z,21.54
2022-08-26T07:32:15.866Z,21.62
2022-08-26T07:33:19.700Z,21.66
2022-08-26T07:34:23.620Z,21.69
2022-08-26T07:35:26.710Z,21.71
2022-08-26T07:36:29.629Z,21.74
2022-08-26T07:37:35.501Z,21.74
2022-08-26T07:38:41.531Z,21.76
2022-08-26T07:39:44.698Z,21.76
2022-08-26T07:40:47.721Z,21.79
2022-08-26T07:41:49.569Z,21.82
2022-08-26T07:42:51.362Z,21.87
2022-08-26T07:43:54.802Z,21.94
2022-08-26T07:44:56.624Z,22.01
2022-08-26T07:45:59.407Z,22.09
2022-08-26T07:47:01.243Z,22.14
2022-08-26T07:48:04.022Z,22.18
2022-08-26T07:49:06.285Z,22.21
2022-08-26T07:50:09.314Z,22.28
2022-08-26T07:51:11.471Z,22.30
2022-08-26T07:52:13.714Z,22.35
2022-08-26T07:53:15.918Z,22.39
2022-08-26T07:54:20.274Z,22.42
2022-08-26T07:55:29.450Z,22.44
2022-08-26T07:56:31.237Z,22.49
2022-08-26T07:57:33.852Z,22.52
2022-08-26T07:58:36.724Z,22.57
2022-08-26T07:59:38.512Z,22.62
2022-08-26T08:00:40.669Z,22.66
2022-08-26T08:01:44.637Z,22.71
2022-08-26T08:02:47.080Z,22.77
2022-08-26T08:03:51.876Z,22.81
2022-08-26T08:04:54.811Z,22.88
2022-08-26T08:05:56.928Z,22.92
2022-08-26T08:06:59.095Z,23.01
2022-08-26T08:08:26.929Z,23.08
2022-08-26T08:09:24.049Z,23.16
2022-08-26T08:10:27.030Z,23.24
2022-08-26T08:11:29.780Z,23.29
2022-08-26T08:12:32.283Z,23.37
2022-08-26T08:13:38.007Z,23.43
2022-08-26T08:14:40.372Z,23.49
2022-08-26T08:15:43.641Z,23.51
2022-08-26T08:16:45.904Z,23.54
2022-08-26T08:17:50.524Z,23.54
2022-08-26T08:18:53.801Z,23.58
2022-08-26T08:19:55.628Z,23.62
2022-08-26T08:21:10.925Z,23.67
2022-08-26T08:22:19.878Z,23.73
2022-08-26T08:23:23.538Z,23.78
2022-08-26T08:24:25.937Z,23.80
2022-08-26T08:25:27.920Z,23.84
2022-08-26T08:26:29.839Z,23.87
2022-08-26T08:27:33.912Z,23.87
2022-08-26T08:28:36.794Z,23.88
2022-08-26T08:29:38.591Z,23.90
2022-08-26T08:30:41.252Z,23.94
2022-08-26T08:31:56.640Z,23.98
2022-08-26T08:33:00.106Z,24.01
2022-08-26T08:34:02.183Z,24.03
2022-08-26T08:35:11.078Z,24.07
2022-08-26T08:36:18.560Z,24.15
2022-08-26T08:37:23.323Z,24.21
2022-08-26T08:38:25.688Z,24.24
2022-08-26T08:39:28.281Z,24.28
2022-08-26T08:40:30.161Z,24.32
2022-08-26T08:41:37.941Z,24.33
2022-08-26T08:42:45.926Z,24.35
2022-08-26T08:43:49.297Z,24.36
2022-08-26T08:44:52.973Z,24.41
2022-08-26T08:45:57.931Z,24.41
2022-08-26T08:47:04.183Z,24.43
2022-08-26T08:48:22.297Z,24.48
2022-08-26T08:49:31.243Z,24.55
2022-08-26T08:50:50.553Z,24.55
2022-08-26T08:52:18.779Z,24.59
2022-08-26T08:53:26.555Z,24.62
2022-08-26T08:54:30.733Z,24.65
2022-08-26T08:55:41.582Z,24.67
2022-08-26T08:56:53.382Z,24.70
2022-08-26T08:58:08.103Z,24.73
2022-08-26T08:59:24.338Z,24.80
2022-08-26T09:00:30.291Z,24.83
2022-08-26T09:01:47.824Z,24.88
2022-08-26T09:02:58.558Z,24.89
2022-08-26T09:04:13.358Z,24.94
2022-08-26T09:05:22.020Z,24.98
2022-08-26T09:06:25.827Z,25.01
2022-08-26T09:07:48.400Z,25.03
2022-08-26T09:08:51.010Z,25.08
2022-08-26T09:10:19.196Z,25.09
2022-08-26T09:11:21.277Z,25.09
2022-08-26T09:12:29.835Z,25.12
2022-08-26T09:13:32.023Z,25.14
2022-08-26T09:14:33.874Z,25.18
2022-08-26T09:15:47.745Z,25.22
2022-08-26T09:16:57.616Z,25.27
2022-08-26T09:18:24.337Z,25.32
2022-08-26T09:19:31.346Z,25.38
2022-08-26T09:20:59.760Z,25.42
2022-08-26T09:22:05.746Z,25.47
2022-08-26T09:23:11.537Z,25.52
2022-08-26T09:24:13.926Z,25.58
2022-08-26T09:25:16.299Z,25.64
2022-08-26T09:26:21.449Z,25.68
2022-08-26T09:27:43.036Z,25.72
2022-08-26T09:28:49.687Z,25.75
2022-08-26T09:29:51.914Z,25.78
2022-08-26T09:31:01.525Z,25.83
2022-08-26T09:32:20.270Z,25.88
2022-08-26T09:33:27.597Z,25.92
2022-08-26T09:34:29.423Z,25.95
2022-08-26T09:35:34.191Z,26.00
2022-08-26T09:36:39.477Z,26.05
2022-08-26T09:38:47.199Z,26.14
2022-08-26T09:39:49.047Z,26.18
2022-08-26T09:40:59.279Z,26.20
2022-08-26T09:42:03.273Z,26.24
2022-08-26T09:43:16.159Z,26.34
2022-08-26T09:44:24.856Z,26.39
2022-08-26T09:45:29.394Z,26.39
2022-08-26T09:46:32.232Z,26.43
2022-08-26T09:47:39.458Z,26.51
2022-08-26T09:48:43.266Z,26.53
2022-08-26T09:49:46.315Z,26.58
2022-08-26T09:50:51.848Z,26.59
2022-08-26T09:52:15.739Z,26.57
2022-08-26T09:53:21.038Z,26.65
2022-08-26T09:54:30.471Z,26.72
2022-08-26T09:55:35.402Z,26.80
2022-08-26T09:56:42.195Z,26.85
2022-08-26T09:57:46.839Z,26.95
2022-08-26T09:58:48.704Z,27.03
2022-08-26T09:59:50.842Z,27.10
2022-08-26T10:00:55.717Z,27.18
2022-08-26T10:02:13.573Z,27.23
2022-08-26T10:03:26.334Z,27.29
2022-08-26T10:04:28.286Z,27.32
2022-08-26T10:05:37.769Z,27.38
2022-08-26T10:06:43.302Z,27.45
2022-08-26T10:07:47.513Z,27.52
2022-08-26T10:08:51.557Z,27.56
2022-08-26T10:09:54.878Z,27.61
2022-08-26T10:10:59.264Z,27.69
2022-08-26T10:12:04.527Z,27.72
2022-08-26T10:13:09.831Z,27.80
2022-08-26T10:14:25.099Z,27.85
2022-08-26T10:15:28.321Z,27.88
2022-08-26T10:16:36.388Z,27.91
2022-08-26T10:17:40.816Z,27.98
2022-08-26T10:18:45.541Z,28.04
2022-08-26T10:19:57.125Z,28.10
2022-08-26T10:21:21.124Z,28.16
2022-08-26T10:22:23.490Z,28.22
2022-08-26T10:23:27.703Z,28.24
2022-08-26T10:24:38.058Z,28.30
2022-08-26T10:25:46.991Z,28.37
2022-08-26T10:27:01.322Z,28.39
2022-08-26T10:28:03.065Z,28.45
2022-08-26T10:29:16.304Z,28.48
2022-08-26T10:30:20.260Z,28.56
2022-08-26T10:31:30.427Z,28.46
2022-08-26T10:32:44.728Z,28.46
2022-08-26T10:33:47.167Z,28.58
2022-08-26T10:34:49.008Z,28.63
2022-08-26T10:35:56.954Z,28.68
2022-08-26T10:37:15.041Z,28.73
2022-08-26T10:38:21.836Z,28.81
2022-08-26T10:39:30.468Z,28.85
2022-08-26T10:40:32.400Z,28.87
2022-08-26T10:41:39.894Z,28.88
2022-08-26T10:42:45.023Z,28.83
2022-08-26T10:43:59.238Z,28.82
2022-08-26T10:45:11.999Z,28.90
2022-08-26T10:46:20.699Z,29.00
2022-08-26T10:47:26.532Z,29.08
2022-08-26T10:48:35.489Z,29.14
2022-08-26T10:49:38.563Z,29.25
2022-08-26T10:50:43.464Z,29.28
2022-08-26T10:51:50.181Z,29.30
2022-08-26T10:53:08.722Z,29.40
2022-08-26T10:54:13.422Z,29.29
2022-08-26T10:55:20.149Z,29.13
2022-08-26T10:56:24.802Z,28.98
2022-08-26T10:57:40.467Z,28.86
2022-08-26T10:58:42.529Z,28.85
2022-08-26T10:59:51.836Z,28.85
2022-08-26T11:01:17.167Z,28.89
2022-08-26T11:02:31.734Z,29.04
2022-08-26T11:03:52.109Z,29.14
2022-08-26T11:04:56.460Z,29.23
2022-08-26T11:06:16.848Z,29.32
2022-08-26T11:07:31.885Z,29.40
2022-08-26T11:08:33.809Z,29.48
2022-08-26T11:09:46.509Z,29.55
2022-08-26T11:10:48.218Z,29.60
2022-08-26T11:11:51.018Z,29.67
2022-08-26T11:12:56.023Z,29.77
2022-08-26T11:13:59.489Z,29.84
2022-08-26T11:15:01.550Z,29.91
2022-08-26T11:16:08.524Z,29.97
2022-08-26T11:17:11.909Z,30.05
2022-08-26T11:18:33.599Z,30.15
2022-08-26T11:19:56.841Z,30.16
2022-08-26T11:20:57.706Z,30.21
2022-08-26T11:22:06.367Z,30.26
2022-08-26T11:23:23.746Z,30.38
2022-08-26T11:24:43.600Z,30.41
2022-08-26T11:26:06.542Z,30.49
2022-08-26T11:27:26.251Z,30.63
2022-08-26T11:28:35.762Z,30.71
2022-08-26T11:29:56.257Z,30.75
2022-08-26T11:30:58.462Z,30.75
2022-08-26T11:32:00.343Z,30.81
2022-08-26T11:33:05.790Z,30.87
2022-08-26T11:34:10.806Z,30.97
2022-08-26T11:35:32.986Z,30.99
2022-08-26T11:36:37.774Z,31.05
2022-08-26T11:37:41.149Z,31.07
2022-08-26T11:38:43.303Z,31.05
2022-08-26T11:39:54.685Z,31.10
2022-08-26T11:41:06.565Z,31.15
2022-08-26T11:42:20.052Z,31.16
2022-08-26T11:43:25.013Z,31.21
2022-08-26T11:44:28.634Z,31.28
2022-08-26T11:45:32.947Z,31.30
2022-08-26T11:46:37.852Z,31.34
2022-08-26T11:47:42.009Z,31.34
2022-08-26T11:48:44.759Z,31.35
2022-08-26T11:49:47.006Z,31.40
2022-08-26T11:50:54.659Z,31.41
2022-08-26T11:52:13.689Z,31.44
2022-08-26T11:53:19.268Z,31.46
2022-08-26T11:54:30.723Z,31.48
2022-08-26T11:55:42.771Z,31.47
2022-08-26T11:56:46.097Z,31.50
2022-08-26T11:57:51.933Z,31.53
2022-08-26T11:58:56.374Z,31.66
2022-08-26T11:59:58.905Z,31.70
2022-08-26T12:01:03.589Z,31.75
2022-08-26T12:02:11.132Z,31.70
2022-08-26T12:03:24.421Z,31.67
2022-08-26T12:04:32.304Z,31.73
2022-08-26T12:05:42.876Z,31.80
2022-08-26T12:06:49.120Z,31.82
2022-08-26T12:07:54.554Z,31.82
2022-08-26T12:09:00.392Z,31.85
2022-08-26T12:10:03.754Z,31.84
2022-08-26T12:11:07.224Z,31.80
2022-08-26T12:12:15.918Z,31.83
2022-08-26T12:13:23.033Z,31.88
2022-08-26T12:14:27.329Z,31.93
2022-08-26T12:15:31.300Z,32.01
2022-08-26T12:16:34.804Z,32.01
2022-08-26T12:17:36.992Z,31.99
2022-08-26T12:18:39.839Z,32.05
2022-08-26T12:19:42.255Z,32.05
2022-08-26T12:20:48.230Z,32.05
2022-08-26T12:21:50.114Z,31.82
2022-08-26T12:22:52.673Z,31.57
2022-08-26T12:23:55.785Z,31.44
2022-08-26T12:24:59.331Z,31.49
2022-08-26T12:26:15.495Z,31.53
2022-08-26T12:27:20.736Z,31.38
2022-08-26T12:28:23.303Z,31.29
2022-08-26T12:29:27.851Z,31.39
2022-08-26T12:30:29.732Z,31.50
2022-08-26T12:31:34.329Z,31.61
2022-08-26T12:32:50.977Z,31.75
2022-08-26T12:34:01.013Z,31.77
2022-08-26T12:36:11.966Z,31.82
2022-08-26T12:37:14.692Z,31.94
2022-08-26T12:38:16.635Z,32.00
2022-08-26T12:39:29.559Z,32.01
2022-08-26T12:40:31.480Z,32.03
2022-08-26T12:41:40.560Z,32.08
2022-08-26T12:42:43.109Z,32.15
2022-08-26T12:43:45.984Z,32.23
2022-08-26T12:45:01.243Z,32.23
2022-08-26T12:46:06.656Z,32.21
2022-08-26T12:47:23.342Z,32.25
2022-08-26T12:48:39.452Z,32.37
2022-08-26T12:49:41.645Z,32.41
2022-08-26T12:50:49.399Z,32.40
2022-08-26T12:51:51.270Z,32.37
2022-08-26T12:53:01.957Z,32.26
2022-08-26T12:54:07.019Z,32.13
2022-08-26T12:55:19.478Z,32.09
2022-08-26T12:56:27.907Z,32.21
2022-08-26T12:57:35.621Z,32.29
2022-08-26T12:58:38.954Z,32.43
2022-08-26T12:59:40.793Z,32.46
2022-08-26T13:00:45.607Z,32.49
2022-08-26T13:01:48.691Z,32.55
2022-08-26T13:02:51.225Z,32.54
2022-08-26T13:03:53.246Z,32.50
2022-08-26T13:05:00.716Z,32.56
2022-08-26T13:06:16.141Z,32.52
2022-08-26T13:07:18.375Z,32.37
2022-08-26T13:08:27.949Z,32.44
2022-08-26T13:09:31.665Z,32.43
2022-08-26T13:10:34.451Z,32.45
2022-08-26T13:11:39.141Z,32.51
2022-08-26T13:12:41.580Z,32.45
2022-08-26T13:13:43.386Z,32.38
2022-08-26T13:14:45.509Z,32.36
2022-08-26T13:15:47.336Z,32.20
2022-08-26T13:16:49.645Z,32.04
2022-08-26T13:17:52.147Z,31.87
2022-08-26T13:18:56.501Z,31.71
2022-08-26T13:20:03.790Z,31.52
2022-08-26T13:21:11.624Z,31.41
2022-08-26T13:22:14.239Z,31.26
2022-08-26T13:23:16.215Z,31.16
2022-08-26T13:24:21.363Z,31.17
2022-08-26T13:25:23.157Z,31.05
2022-08-26T13:26:24.986Z,31.09
2022-08-26T13:27:27.652Z,31.06
2022-08-26T13:28:29.460Z,31.07
2022-08-26T13:29:31.515Z,31.02
2022-08-26T13:30:33.623Z,30.90
2022-08-26T13:31:38.450Z,30.80
2022-08-26T13:32:40.493Z,30.72
2022-08-26T13:33:45.605Z,30.64
2022-08-26T13:34:51.458Z,30.55
2022-08-26T13:35:54.980Z,30.53
2022-08-26T13:36:56.932Z,30.51
2022-08-26T13:37:59.382Z,30.74
2022-08-26T13:39:01.196Z,30.93
2022-08-26T13:40:05.201Z,31.11
2022-08-26T13:41:07.150Z,31.29
2022-08-26T13:42:09.379Z,31.38
2022-08-26T13:43:11.939Z,31.47
2022-08-26T13:44:13.997Z,31.57
2022-08-26T13:45:15.988Z,31.71
2022-08-26T13:46:17.848Z,31.80
2022-08-26T13:47:22.084Z,31.93
2022-08-26T13:48:23.938Z,32.01
2022-08-26T13:49:25.741Z,32.06
2022-08-26T13:50:27.675Z,32.18
2022-08-26T13:51:30.178Z,32.20
2022-08-26T13:52:32.121Z,32.20
2022-08-26T13:53:34.061Z,32.29
2022-08-26T13:54:36.440Z,32.26
2022-08-26T13:55:38.347Z,32.29
2022-08-26T13:56:40.266Z,32.33
2022-08-26T13:57:42.157Z,32.44
2022-08-26T13:58:44.520Z,32.52
2022-08-26T13:59:47.959Z,32.61
2022-08-26T14:00:49.903Z,32.71
2022-08-26T14:01:51.811Z,32.68